Time;durP1;ratioP1;P1;durP2;ratioP2;P2;SDS_P1;SDS_P2;PMS_P1;PMS_P2;Temp;Humidity;BMP_temperature;BMP_pressure;BME280_temperature;BME280_humidity;BME280_pressure;Samples;Min_cycle;Max_cycle;Signal;HPM_P1;HPM_P2
2023/04/11 00:02:26;;;;;;;2.72;0.82;;;8.50;96.50;;;;;;4756922;30;20052;-89
2023/04/11 00:05:01;;;;;;;3.47;0.98;;;8.60;96.50;;;;;;4756642;30;20055;-89
2023/04/11 00:07:30;;;;;;;2.28;0.65;;;8.60;96.40;;;;;;4757355;30;20493;-89
2023/04/11 00:10:16;;;;;;;3.97;0.70;;;8.60;96.40;;;;;;4757219;30;20055;-89
2023/04/11 00:12:59;;;;;;;10.52;1.77;;;8.70;96.40;;;;;;4771948;30;20052;-89
2023/04/11 00:15:38;;;;;;;7.28;1.17;;;8.80;96.40;;;;;;4742795;30;20063;-88
2023/04/11 00:18:06;;;;;;;6.28;1.55;;;8.90;96.40;;;;;;4745539;30;20076;-88
2023/04/11 00:20:33;;;;;;;10.45;2.35;;;9.00;96.40;;;;;;4742230;30;20056;-88
2023/04/11 00:23:07;;;;;;;11.52;2.85;;;9.10;96.60;;;;;;4756734;30;20506;-88
2023/04/11 00:25:38;;;;;;;10.63;2.58;;;9.20;96.50;;;;;;4739113;30;20048;-88
2023/04/11 00:28:05;;;;;;;12.75;3.55;;;9.30;96.50;;;;;;4751672;30;20052;-88
2023/04/11 00:30:39;;;;;;;12.90;3.70;;;9.40;96.60;;;;;;4742589;30;20075;-88
2023/04/11 00:33:14;;;;;;;11.65;3.45;;;9.50;96.60;;;;;;4742015;30;20052;-88
2023/04/11 00:35:44;;;;;;;21.63;4.10;;;9.60;96.60;;;;;;4742381;30;20052;-89
2023/04/11 00:38:26;;;;;;;17.08;3.60;;;9.60;96.60;;;;;;4756086;30;20055;-89
2023/04/11 00:41:14;;;;;;;18.27;3.85;;;9.70;96.50;;;;;;4743741;30;20529;-89
2023/04/11 00:43:46;;;;;;;17.67;3.90;;;9.70;96.50;;;;;;4742043;30;20066;-89
2023/04/11 00:46:18;;;;;;;9.73;2.75;;;9.80;96.50;;;;;;4774649;30;20101;-89
2023/04/11 00:48:53;;;;;;;15.35;3.00;;;9.80;96.40;;;;;;4756663;30;20052;-89
2023/04/11 00:51:28;;;;;;;11.88;3.22;;;9.80;96.40;;;;;;4771189;30;20052;-89
2023/04/11 00:54:29;;;;;;;17.13;3.17;;;9.80;96.40;;;;;;4756350;30;20075;-88
2023/04/11 00:57:06;;;;;;;14.52;3.10;;;9.80;96.50;;;;;;4750617;30;20052;-89
2023/04/11 00:59:43;;;;;;;15.05;3.58;;;9.70;96.50;;;;;;4741785;30;20093;-88
2023/04/11 01:02:23;;;;;;;13.13;3.65;;;9.70;96.50;;;;;;4745380;30;20142;-88
2023/04/11 01:05:06;;;;;;;14.82;4.05;;;9.60;96.50;;;;;;4742211;30;20056;-89
2023/04/11 01:07:38;;;;;;;18.08;3.58;;;9.60;96.50;;;;;;4741826;30;20126;-89
2023/04/11 01:10:30;;;;;;;15.15;3.03;;;9.60;96.60;;;;;;4746774;30;20052;-89
2023/04/11 01:13:01;;;;;;;10.55;3.15;;;9.50;96.70;;;;;;4766301;30;20048;-89
2023/04/11 01:15:29;;;;;;;12.85;3.55;;;9.40;96.70;;;;;;4755663;30;20050;-88
2023/04/11 01:18:00;;;;;;;15.77;3.42;;;9.40;96.80;;;;;;4741923;30;20043;-89
2023/04/11 01:20:37;;;;;;;18.73;3.13;;;9.40;97.00;;;;;;4756747;30;20090;-89
2023/04/11 01:23:09;;;;;;;9.20;3.47;;;9.40;96.90;;;;;;4754708;30;20473;-89
2023/04/11 01:25:39;;;;;;;14.55;3.58;;;9.40;96.90;;;;;;4759422;30;20498;-89
2023/04/11 01:28:19;;;;;;;16.63;3.67;;;9.40;96.90;;;;;;4741889;30;20051;-89
2023/04/11 01:31:03;;;;;;;15.20;2.45;;;9.50;96.80;;;;;;4743206;30;20052;-88
2023/04/11 01:33:42;;;;;;;12.50;2.65;;;9.50;96.70;;;;;;4741666;30;20052;-88
2023/04/11 01:36:16;;;;;;;16.17;3.15;;;9.50;96.70;;;;;;4755197;30;20043;-89
2023/04/11 01:38:49;;;;;;;15.05;3.38;;;9.50;96.70;;;;;;4755108;30;20078;-89
2023/04/11 01:41:19;;;;;;;10.98;2.17;;;9.50;96.80;;;;;;4752505;30;20126;-89
2023/04/11 01:43:54;;;;;;;13.50;1.98;;;9.40;96.70;;;;;;4738393;30;20048;-90
2023/04/11 01:46:36;;;;;;;13.18;2.40;;;9.40;96.80;;;;;;4742769;30;20557;-89
2023/04/11 01:49:17;;;;;;;17.30;2.88;;;9.30;96.80;;;;;;4735750;30;20056;-90
2023/04/11 01:51:51;;;;;;;10.07;2.10;;;9.30;96.90;;;;;;4733313;30;20052;-90
2023/04/11 01:54:32;;;;;;;13.55;2.83;;;9.20;96.90;;;;;;4737442;30;20056;-90
2023/04/11 01:57:12;;;;;;;12.00;2.88;;;9.20;97.00;;;;;;4718990;30;20056;-90
2023/04/11 01:59:39;;;;;;;13.73;2.65;;;9.10;97.00;;;;;;4740758;30;20060;-89
2023/04/11 02:02:16;;;;;;;16.60;2.67;;;9.10;97.00;;;;;;4727174;30;20063;-90
2023/04/11 02:04:52;;;;;;;16.27;2.70;;;9.10;97.10;;;;;;4754756;30;20520;-89
2023/04/11 02:07:20;;;;;;;19.42;2.78;;;9.00;97.10;;;;;;4740646;30;20059;-90
2023/04/11 02:09:48;;;;;;;15.60;3.03;;;9.00;97.10;;;;;;4754706;30;20055;-89
2023/04/11 02:12:15;;;;;;;12.50;2.22;;;9.00;97.10;;;;;;4736685;30;20168;-89
2023/04/11 02:14:45;;;;;;;21.50;3.97;;;8.90;97.20;;;;;;4755201;30;20049;-89
2023/04/11 02:17:14;;;;;;;20.27;2.47;;;8.90;97.20;;;;;;4754851;30;20050;-90
2023/04/11 02:19:44;;;;;;;11.75;2.28;;;8.90;97.30;;;;;;4754851;30;20047;-90
2023/04/11 02:22:17;;;;;;;12.10;2.50;;;8.90;97.20;;;;;;4741152;30;20051;-90
2023/04/11 02:24:55;;;;;;;12.25;1.58;;;8.80;97.20;;;;;;4769571;30;20052;-89
2023/04/11 02:27:24;;;;;;;13.60;2.50;;;8.80;97.30;;;;;;4740206;30;20047;-89
2023/04/11 02:29:53;;;;;;;13.27;2.30;;;8.80;97.40;;;;;;4757238;30;20063;-90
2023/04/11 02:32:21;;;;;;;12.73;2.13;;;8.80;97.30;;;;;;4739938;30;20111;-87
2023/04/11 02:34:52;;;;;;;11.88;2.00;;;8.90;97.30;;;;;;4741055;30;20056;-87
2023/04/11 02:37:19;;;;;;;14.27;2.28;;;8.90;97.30;;;;;;4754615;30;20052;-87
2023/04/11 02:39:46;;;;;;;11.35;2.05;;;8.90;97.20;;;;;;4754469;30;20048;-87
2023/04/11 02:42:29;;;;;;;23.55;3.63;;;8.90;97.10;;;;;;4740828;30;20139;-87
2023/04/11 02:45:12;;;;;;;15.43;2.47;;;9.00;97.10;;;;;;4757975;30;20052;-87
2023/04/11 02:47:59;;;;;;;15.82;2.28;;;9.00;97.00;;;;;;4742644;30;20067;-87
2023/04/11 02:50:39;;;;;;;14.68;2.20;;;9.00;96.90;;;;;;4739306;30;20052;-87
2023/04/11 02:53:20;;;;;;;8.50;1.85;;;9.00;96.60;;;;;;4748845;30;20595;-87
2023/04/11 02:56:21;;;;;;;5.63;1.10;;;8.90;96.40;;;;;;4738354;30;20044;-87
2023/04/11 02:58:55;;;;;;;6.47;1.30;;;8.90;96.20;;;;;;4754144;30;20102;-86
2023/04/11 03:01:40;;;;;;;4.10;0.88;;;8.80;96.10;;;;;;4770463;30;20048;-87
2023/04/11 03:04:20;;;;;;;6.63;1.10;;;8.80;96.10;;;;;;4767166;30;20118;-87
2023/04/11 03:06:56;;;;;;;6.65;1.48;;;8.70;96.10;;;;;;4736098;30;20052;-86
2023/04/11 03:09:23;;;;;;;8.02;1.20;;;8.70;96.20;;;;;;4767525;30;20102;-87
2023/04/11 03:11:51;;;;;;;7.07;1.15;;;8.70;96.20;;;;;;4739504;30;20104;-87
2023/04/11 03:14:24;;;;;;;8.48;1.50;;;8.80;96.20;;;;;;4742756;30;20044;-86
2023/04/11 03:17:00;;;;;;;11.85;1.52;;;8.80;96.20;;;;;;4750143;30;20044;-87
2023/04/11 03:19:30;;;;;;;6.22;1.00;;;8.80;96.20;;;;;;4771781;30;20051;-87
2023/04/11 03:22:00;;;;;;;6.07;0.82;;;8.90;96.20;;;;;;4757187;30;20051;-87
2023/04/11 03:24:33;;;;;;;7.15;1.15;;;8.90;96.20;;;;;;4771638;30;20056;-87
2023/04/11 03:27:04;;;;;;;11.70;2.15;;;8.90;96.10;;;;;;4750377;30;20052;-87
2023/04/11 03:29:49;;;;;;;8.32;1.58;;;8.90;96.10;;;;;;4756207;30;20043;-87
2023/04/11 03:32:25;;;;;;;9.60;1.90;;;9.00;96.20;;;;;;4743020;30;20051;-88
2023/04/11 03:34:58;;;;;;;11.48;1.85;;;9.00;96.20;;;;;;4757126;30;20051;-89
2023/04/11 03:37:29;;;;;;;12.95;2.13;;;8.90;96.30;;;;;;4757175;30;20067;-89
2023/04/11 03:40:00;;;;;;;9.35;1.33;;;8.90;96.30;;;;;;4743856;30;20052;-89
2023/04/11 03:42:30;;;;;;;9.90;1.83;;;8.90;96.40;;;;;;4766418;30;20056;-89
2023/04/11 03:45:03;;;;;;;11.95;2.08;;;8.80;96.50;;;;;;4723434;30;20043;-89
2023/04/11 03:47:32;;;;;;;16.83;1.85;;;8.80;96.50;;;;;;4742045;30;20047;-89
2023/04/11 03:50:04;;;;;;;10.35;1.40;;;8.70;96.60;;;;;;4740228;30;20091;-89
2023/04/11 03:52:47;;;;;;;16.60;2.38;;;8.70;96.70;;;;;;4755212;30;20118;-89
2023/04/11 03:55:22;;;;;;;7.80;1.75;;;8.60;96.70;;;;;;4740590;30;20051;-89
2023/04/11 03:58:01;;;;;;;8.02;1.10;;;8.60;96.80;;;;;;4763572;30;20094;-89
2023/04/11 04:00:31;;;;;;;13.20;1.85;;;8.60;96.80;;;;;;4740144;30;20055;-89
2023/04/11 04:03:07;;;;;;;11.38;2.15;;;8.50;96.80;;;;;;4756512;30;20055;-89
2023/04/11 04:05:48;;;;;;;9.60;1.70;;;8.50;96.80;;;;;;4746243;30;20048;-89
2023/04/11 04:08:16;;;;;;;11.68;2.03;;;8.50;96.80;;;;;;4756917;30;20051;-89
2023/04/11 04:10:47;;;;;;;7.47;1.25;;;8.60;96.70;;;;;;4756981;30;20143;-89
2023/04/11 04:13:18;;;;;;;7.00;0.90;;;8.60;96.50;;;;;;4757001;30;20082;-89
2023/04/11 04:16:07;;;;;;;7.22;1.30;;;8.70;96.40;;;;;;4744447;30;20052;-89
2023/04/11 04:18:40;;;;;;;9.38;1.30;;;8.70;96.20;;;;;;4771619;30;20068;-89
2023/04/11 04:21:11;;;;;;;9.15;1.33;;;8.70;96.10;;;;;;4756514;30;20047;-89
2023/04/11 04:23:49;;;;;;;3.17;0.60;;;8.70;96.00;;;;;;4743546;30;20071;-89
2023/04/11 04:26:30;;;;;;;7.18;1.05;;;8.70;96.00;;;;;;4743761;30;20069;-89
2023/04/11 04:29:47;;;;;;;7.88;0.98;;;8.70;95.90;;;;;;4757218;30;20056;-89
2023/04/11 04:32:33;;;;;;;5.88;1.10;;;8.70;95.80;;;;;;4745222;30;20052;-89
2023/04/11 04:35:29;;;;;;;9.38;1.70;;;8.80;95.60;;;;;;4738712;30;20055;-89
2023/04/11 04:38:05;;;;;;;6.75;1.02;;;8.80;95.50;;;;;;4771357;30;20068;-90
2023/04/11 04:41:05;;;;;;;10.60;1.02;;;8.80;95.50;;;;;;4745240;30;20056;-89
2023/04/11 04:43:40;;;;;;;5.93;1.00;;;8.80;95.50;;;;;;4742998;30;20070;-90
2023/04/11 04:46:13;;;;;;;4.85;0.88;;;8.80;95.40;;;;;;4755228;30;20097;-88
2023/04/11 04:48:50;;;;;;;7.70;0.80;;;8.80;95.30;;;;;;4755532;30;20098;-89
2023/04/11 04:51:29;;;;;;;5.97;0.88;;;8.80;95.20;;;;;;4757010;30;20059;-89
2023/04/11 04:54:08;;;;;;;6.22;1.27;;;8.80;95.10;;;;;;4741658;30;20060;-89
2023/04/11 04:56:43;;;;;;;4.35;0.60;;;8.80;95.10;;;;;;4770402;30;20528;-89
2023/04/11 04:59:22;;;;;;;5.43;1.00;;;8.80;95.10;;;;;;4753240;30;20048;-87
2023/04/11 05:02:08;;;;;;;11.10;1.17;;;8.80;95.00;;;;;;4727034;30;20056;-87
2023/04/11 05:04:40;;;;;;;5.57;1.08;;;8.80;95.00;;;;;;4754750;30;20059;-87
2023/04/11 05:07:32;;;;;;;7.93;0.80;;;8.80;94.90;;;;;;4746581;30;20055;-88
2023/04/11 05:10:04;;;;;;;5.68;0.90;;;8.80;94.90;;;;;;4743364;30;20088;-87
2023/04/11 05:12:37;;;;;;;6.93;0.98;;;8.70;94.90;;;;;;4749682;30;20104;-87
2023/04/11 05:15:22;;;;;;;4.57;0.70;;;8.80;94.90;;;;;;4755671;30;20518;-88
2023/04/11 05:17:52;;;;;;;4.45;0.60;;;8.80;94.80;;;;;;4751873;30;20048;-86
2023/04/11 05:20:20;;;;;;;8.23;0.77;;;8.80;94.70;;;;;;4737695;30;20433;-86
2023/04/11 05:22:49;;;;;;;9.18;1.63;;;8.70;94.50;;;;;;4737639;30;20056;-87
2023/04/11 05:25:23;;;;;;;9.77;0.93;;;8.70;94.50;;;;;;4755220;30;20048;-87
2023/04/11 05:27:54;;;;;;;4.18;0.70;;;8.70;94.40;;;;;;4733396;30;20048;-87
2023/04/11 05:30:28;;;;;;;3.75;0.50;;;8.70;94.40;;;;;;4767177;30;20059;-88
2023/04/11 05:33:06;;;;;;;6.20;1.05;;;8.70;94.40;;;;;;4752569;30;20109;-87
2023/04/11 05:35:43;;;;;;;7.43;0.98;;;8.70;94.20;;;;;;4754291;30;20055;-87
2023/04/11 05:38:14;;;;;;;5.53;0.50;;;8.60;94.20;;;;;;4736607;30;20058;-88
2023/04/11 05:40:43;;;;;;;5.07;0.95;;;8.50;94.20;;;;;;4751225;30;20459;-88
2023/04/11 05:43:21;;;;;;;5.03;0.52;;;8.50;94.30;;;;;;4754410;30;20060;-88
2023/04/11 05:46:00;;;;;;;4.40;0.52;;;8.40;94.20;;;;;;4756491;30;20052;-88
2023/04/11 05:48:46;;;;;;;2.33;0.40;;;8.40;94.10;;;;;;4763615;30;20067;-88
2023/04/11 05:51:18;;;;;;;4.82;0.70;;;8.40;94.00;;;;;;4752969;30;20080;-88
2023/04/11 05:54:17;;;;;;;6.70;1.52;;;8.40;93.70;;;;;;4753872;30;20055;-88
2023/04/11 05:56:47;;;;;;;5.03;0.52;;;8.40;93.60;;;;;;4749831;30;20043;-88
2023/04/11 05:59:33;;;;;;;3.72;0.57;;;8.40;93.70;;;;;;4755171;30;20464;-87
2023/04/11 06:02:01;;;;;;;7.32;0.98;;;8.40;93.40;;;;;;4740511;30;20071;-88
2023/04/11 06:04:43;;;;;;;4.90;0.60;;;8.50;93.40;;;;;;4754969;30;20052;-88
2023/04/11 06:07:20;;;;;;;3.13;0.50;;;8.50;93.30;;;;;;4769825;30;20119;-88
2023/04/11 06:09:47;;;;;;;3.88;0.60;;;8.60;93.10;;;;;;4755158;30;20050;-88
2023/04/11 06:12:25;;;;;;;3.40;0.40;;;8.60;92.80;;;;;;4754730;30;20514;-87
2023/04/11 06:15:02;;;;;;;6.78;0.85;;;8.70;92.70;;;;;;4751067;30;20051;-88
2023/04/11 06:17:32;;;;;;;4.32;0.40;;;8.70;92.70;;;;;;4754625;30;20059;-89
2023/04/11 06:20:06;;;;;;;3.35;0.40;;;8.80;92.70;;;;;;4754092;30;20066;-88
2023/04/11 06:22:38;;;;;;;6.68;0.70;;;8.80;92.60;;;;;;4754124;30;20122;-89
2023/04/11 06:25:16;;;;;;;5.82;1.40;;;8.90;92.50;;;;;;4737881;30;20052;-89
2023/04/11 06:28:04;;;;;;;4.20;1.00;;;8.90;92.30;;;;;;4733549;30;20058;-90
2023/04/11 06:30:39;;;;;;;2.72;0.40;;;9.00;92.10;;;;;;4770719;30;20060;-89
2023/04/11 06:33:21;;;;;;;3.70;0.32;;;9.00;92.10;;;;;;4754757;30;20091;-89
2023/04/11 06:36:04;;;;;;;2.22;0.68;;;9.10;92.10;;;;;;4742363;30;20111;-89
2023/04/11 06:38:41;;;;;;;5.32;0.90;;;9.10;92.00;;;;;;4748169;30;20509;-89
2023/04/11 06:41:32;;;;;;;4.28;0.60;;;9.20;91.70;;;;;;4741164;30;20052;-89
2023/04/11 06:44:14;;;;;;;5.93;1.33;;;9.20;91.60;;;;;;4740454;30;20056;-89
2023/04/11 06:46:42;;;;;;;3.30;0.75;;;9.30;91.40;;;;;;4741114;30;20060;-89
2023/04/11 06:49:31;;;;;;;11.32;1.05;;;9.30;91.40;;;;;;4755365;30;20052;-89
2023/04/11 06:57:12;;;;;;;5.97;0.85;;;9.50;90.90;;;;;;4770341;30;20043;-89
2023/04/11 07:00:16;;;;;;;4.90;0.88;;;9.50;90.90;;;;;;4774956;30;20142;-89
2023/04/11 07:02:59;;;;;;;7.20;1.10;;;9.70;91.00;;;;;;4771549;30;20059;-89
2023/04/11 07:05:46;;;;;;;3.40;0.60;;;9.70;90.70;;;;;;4756296;30;20055;-88
2023/04/11 07:08:38;;;;;;;4.57;1.55;;;9.70;90.60;;;;;;4771557;30;20581;-88
2023/04/11 07:11:21;;;;;;;4.65;0.55;;;9.80;90.50;;;;;;4760928;30;20059;-89
2023/04/11 07:14:02;;;;;;;5.95;1.50;;;9.90;90.40;;;;;;4771094;30;20062;-89
2023/04/11 07:16:38;;;;;;;6.00;0.95;;;9.90;90.30;;;;;;4761362;30;20048;-89
2023/04/11 07:19:27;;;;;;;5.18;0.73;;;10.00;90.30;;;;;;4756534;30;20055;-87
2023/04/11 07:21:55;;;;;;;8.27;0.93;;;10.10;90.10;;;;;;4753453;30;20060;-88
2023/04/11 07:24:58;;;;;;;8.55;1.17;;;10.10;90.00;;;;;;4751206;30;20166;-88
2023/04/11 07:27:48;;;;;;;5.47;1.00;;;10.20;89.40;;;;;;4756966;30;20158;-88
2023/04/11 07:39:14;;;;;;;11.77;1.15;;;10.90;87.70;;;;;;4757464;30;20387;-88
2023/04/11 07:41:47;;;;;;;5.88;1.33;;;11.00;87.00;;;;;;4740198;30;20533;-88
2023/04/11 07:49:41;;;;;;;10.90;1.45;;;11.10;85.80;;;;;;4766599;30;20047;-88
2023/04/11 07:52:25;;;;;;;8.63;0.93;;;11.10;84.40;;;;;;4755249;30;20058;-88
2023/04/11 07:56:11;;;;;;;6.40;1.05;;;11.00;82.40;;;;;;4744025;30;20052;-87
2023/04/11 07:59:45;;;;;;;6.65;0.80;;;11.00;82.50;;;;;;4759820;30;20059;-88
2023/04/11 08:02:57;;;;;;;10.73;1.02;;;11.00;82.00;;;;;;4717852;30;20266;-89
2023/04/11 08:06:37;;;;;;;;;;;;;;;;;;;;;
2023/04/11 08:13:21;;;;;;;3.08;0.52;;;10.90;79.30;;;;;;4735828;30;20212;-87
2023/04/11 08:15:48;;;;;;;2.53;0.70;;;11.20;80.00;;;;;;4737313;30;20048;-87
2023/04/11 08:18:20;;;;;;;5.10;0.77;;;11.30;79.80;;;;;;4752849;30;20063;-88
2023/04/11 08:24:51;;;;;;;5.82;0.75;;;11.50;78.90;;;;;;4718663;30;20057;-88
2023/04/11 08:27:25;;;;;;;7.90;1.02;;;11.60;77.50;;;;;;4737884;30;20106;-87
2023/04/11 08:30:25;;;;;;;7.85;0.85;;;11.70;77.10;;;;;;4743420;30;20233;-87
2023/04/11 08:33:08;;;;;;;4.28;0.60;;;11.80;76.00;;;;;;4731418;30;20048;-87
2023/04/11 08:35:53;;;;;;;3.95;0.65;;;11.80;75.10;;;;;;4734419;30;20053;-87
2023/04/11 08:38:30;;;;;;;4.57;0.98;;;11.80;74.50;;;;;;4737545;30;20056;-86
2023/04/11 08:41:06;;;;;;;4.60;0.63;;;11.80;73.90;;;;;;4770209;30;20505;-86
2023/04/11 08:43:51;;;;;;;2.83;0.82;;;11.90;74.00;;;;;;4770574;30;20425;-86
2023/04/11 08:46:25;;;;;;;5.32;0.57;;;12.00;73.60;;;;;;4741382;30;20070;-87
2023/04/11 08:48:59;;;;;;;5.93;0.63;;;12.10;72.80;;;;;;4755406;30;20058;-86
2023/04/11 08:51:52;;;;;;;6.03;0.77;;;12.20;72.80;;;;;;4741401;30;20060;-87
2023/04/11 08:54:32;;;;;;;4.05;0.68;;;12.30;72.00;;;;;;4746436;30;20077;-87
2023/04/11 08:57:01;;;;;;;8.33;2.00;;;12.30;70.30;;;;;;4770068;30;20060;-87
2023/04/11 08:59:38;;;;;;;4.68;0.70;;;12.30;69.60;;;;;;4766489;30;20310;-87
2023/04/11 09:02:15;;;;;;;5.00;0.80;;;12.40;70.10;;;;;;4751616;30;20056;-85
2023/04/11 09:04:47;;;;;;;3.38;0.50;;;12.50;68.70;;;;;;4740220;30;20059;-87
2023/04/11 09:07:23;;;;;;;5.93;0.98;;;12.50;69.70;;;;;;4741525;30;20493;-88
2023/04/11 09:09:51;;;;;;;4.78;1.15;;;12.70;67.50;;;;;;4739213;30;20049;-88
2023/04/11 09:12:40;;;;;;;3.50;0.60;;;12.70;66.70;;;;;;4741488;30;20498;-88
2023/04/11 09:15:42;;;;;;;8.35;0.68;;;12.70;67.50;;;;;;4737194;30;20048;-86
2023/04/11 09:18:09;;;;;;;6.65;1.15;;;12.50;68.60;;;;;;4755438;30;20052;-85
2023/04/11 09:20:37;;;;;;;3.47;0.50;;;12.40;69.00;;;;;;4764906;30;20455;-90
2023/04/11 09:23:04;;;;;;;7.35;0.63;;;12.30;68.80;;;;;;4755657;30;20476;-87
2023/04/11 09:25:43;;;;;;;7.18;0.90;;;12.30;69.00;;;;;;4740401;30;20051;-86
2023/04/11 09:28:10;;;;;;;5.07;0.95;;;12.30;68.00;;;;;;4734447;30;20110;-86
2023/04/11 09:30:37;;;;;;;3.40;0.90;;;12.20;66.90;;;;;;4739105;30;20141;-87
2023/04/11 09:33:22;;;;;;;5.22;0.73;;;12.00;66.60;;;;;;4749024;30;20514;-84
2023/04/11 09:35:52;;;;;;;4.88;0.95;;;11.90;67.20;;;;;;4744225;30;20460;-83
2023/04/11 09:38:32;;;;;;;3.15;0.70;;;11.80;67.50;;;;;;4770127;30;20135;-88
2023/04/11 09:41:01;;;;;;;3.50;0.75;;;11.90;68.00;;;;;;4746239;30;20055;-87
2023/04/11 09:43:54;;;;;;;4.90;1.35;;;12.00;68.60;;;;;;4741006;30;20486;-89
2023/04/11 09:46:22;;;;;;;9.45;1.25;;;12.10;68.40;;;;;;4740651;30;20060;-88
2023/04/11 09:48:51;;;;;;;4.75;0.60;;;12.20;68.40;;;;;;4752284;30;20071;-90
2023/04/11 09:51:40;;;;;;;3.78;0.50;;;12.40;68.40;;;;;;4736079;30;20084;-88
2023/04/11 09:54:10;;;;;;;2.97;0.60;;;12.60;67.20;;;;;;4741812;30;20051;-88
2023/04/11 09:56:41;;;;;;;5.22;1.08;;;12.60;66.30;;;;;;4759189;30;20048;-87
2023/04/11 09:59:19;;;;;;;6.45;0.95;;;12.40;66.40;;;;;;4751847;30;20052;-88
2023/04/11 10:02:00;;;;;;;6.25;1.08;;;12.20;66.70;;;;;;4738452;30;20112;-89
2023/04/11 10:04:39;;;;;;;5.18;0.70;;;12.10;67.50;;;;;;4747585;30;20421;-90
2023/04/11 10:07:17;;;;;;;4.57;0.50;;;12.20;66.70;;;;;;4754233;30;20071;-87
2023/04/11 10:09:46;;;;;;;4.13;0.98;;;12.30;65.30;;;;;;4752791;30;20056;-92
2023/04/11 10:12:30;;;;;;;2.72;0.55;;;12.50;65.10;;;;;;4751802;30;20048;-87
2023/04/11 10:15:04;;;;;;;3.10;0.45;;;12.70;64.50;;;;;;4755150;30;20043;-89
2023/04/11 10:17:32;;;;;;;2.95;0.70;;;12.80;62.70;;;;;;4755239;30;20098;-89
2023/04/11 10:19:59;;;;;;;3.08;0.30;;;13.00;61.90;;;;;;4755879;30;20497;-89
2023/04/11 10:22:42;;;;;;;2.45;0.30;;;13.20;60.00;;;;;;4740596;30;20498;-89
2023/04/11 10:25:23;;;;;;;3.60;0.50;;;13.60;59.30;;;;;;4755357;30;20062;-88
2023/04/11 10:28:27;;;;;;;2.88;0.40;;;13.70;58.00;;;;;;4754896;30;20150;-88
2023/04/11 10:31:11;;;;;;;3.53;0.60;;;13.80;57.60;;;;;;4755037;30;20052;-89
2023/04/11 10:34:00;;;;;;;3.58;0.50;;;13.80;58.20;;;;;;4756210;30;20521;-87
2023/04/11 10:36:47;;;;;;;2.45;0.40;;;13.90;57.40;;;;;;4741463;30;20047;-85
2023/04/11 10:39:14;;;;;;;4.80;0.60;;;13.80;57.50;;;;;;4759132;30;20109;-86
2023/04/11 10:41:41;;;;;;;3.00;0.40;;;13.50;57.90;;;;;;4754421;30;20048;-87
2023/04/11 10:44:23;;;;;;;4.20;0.63;;;13.50;58.40;;;;;;4736675;30;20494;-87
2023/04/11 10:46:52;;;;;;;2.55;0.65;;;13.50;58.70;;;;;;4737725;30;20052;-89
2023/04/11 10:49:39;;;;;;;5.97;0.40;;;13.60;58.30;;;;;;4743181;30;20103;-88
2023/04/11 10:52:17;;;;;;;3.45;0.52;;;13.60;57.60;;;;;;4753391;30;20048;-88
2023/04/11 10:54:45;;;;;;;2.42;0.40;;;13.50;57.40;;;;;;4754249;30;20047;-88
2023/04/11 10:57:13;;;;;;;1.63;0.28;;;13.70;56.90;;;;;;4739881;30;20051;-88
2023/04/11 10:59:43;;;;;;;3.67;0.30;;;13.90;56.30;;;;;;4739856;30;20048;-87
2023/04/11 11:02:12;;;;;;;2.42;0.38;;;14.00;55.50;;;;;;4769258;30;20047;-89
2023/04/11 11:04:39;;;;;;;3.95;0.47;;;14.20;55.40;;;;;;4756572;30;20043;-86
2023/04/11 11:20:56;;;;;;;3.67;0.65;;;13.20;55.70;;;;;;4741921;29;20082;-93
2023/04/11 11:24:37;;;;;;;5.10;0.88;;;13.30;55.50;;;;;;4739123;30;20056;-95
2023/04/11 11:27:56;;;;;;;2.10;0.35;;;13.30;55.50;;;;;;4746023;30;20076;-92
2023/04/11 11:39:48;;;;;;;2.00;0.45;;;15.70;51.60;;;;;;4719842;30;20411;-91
2023/04/11 11:47:36;;;;;;;;;;;;;;;;;;;;;
2023/04/11 11:58:53;;;;;;;3.13;0.50;;;16.80;49.20;;;;;;4608465;31;20089;-87
2023/04/11 12:01:21;;;;;;;2.88;0.40;;;16.80;48.10;;;;;;4632425;30;20063;-90
2023/04/11 12:07:55;;;;;;;7.25;1.05;;;16.90;48.40;;;;;;4614990;31;20056;-85
2023/04/11 12:10:22;;;;;;;2.92;0.35;;;17.00;47.70;;;;;;4640279;30;20081;-82
2023/04/11 12:12:49;;;;;;;6.97;0.90;;;16.60;48.40;;;;;;4670993;30;20050;-81
2023/04/11 12:15:22;;;;;;;7.15;0.70;;;15.90;48.70;;;;;;4685298;30;20061;-82
2023/04/11 12:17:53;;;;;;;2.67;0.32;;;15.20;49.80;;;;;;4671051;30;20100;-85
2023/04/11 12:20:23;;;;;;;6.83;0.80;;;14.80;50.70;;;;;;4679156;30;20052;-86
2023/04/11 12:22:50;;;;;;;4.40;0.68;;;14.50;51.30;;;;;;4752947;30;20490;-85
2023/04/11 12:25:21;;;;;;;6.10;0.65;;;14.40;51.50;;;;;;4738438;30;20056;-87
2023/04/11 12:27:56;;;;;;;4.75;0.47;;;14.20;52.00;;;;;;4738561;30;20080;-87
2023/04/11 12:30:39;;;;;;;4.85;0.68;;;14.20;52.50;;;;;;4753217;30;20120;-87
2023/04/11 12:33:12;;;;;;;2.63;0.38;;;14.20;52.80;;;;;;4738984;30;20122;-86
2023/04/11 12:35:39;;;;;;;6.75;0.75;;;14.10;53.00;;;;;;4738457;30;20041;-84
2023/04/11 12:38:43;;;;;;;5.95;0.75;;;14.20;52.70;;;;;;4724151;30;20065;-88
2023/04/11 12:41:10;;;;;;;4.53;0.40;;;14.20;51.90;;;;;;4729807;30;20060;-85
2023/04/11 12:44:00;;;;;;;4.20;0.50;;;14.10;51.60;;;;;;4750992;30;20048;-86
2023/04/11 12:46:28;;;;;;;3.95;0.50;;;14.00;52.00;;;;;;4723328;30;20144;-85
2023/04/11 12:48:56;;;;;;;2.22;0.60;;;14.10;52.00;;;;;;4736291;30;20138;-86
2023/04/11 12:55:19;;;;;;;3.08;0.47;;;13.90;52.00;;;;;;4738260;30;20055;-95
2023/04/11 12:58:03;;;;;;;6.63;1.05;;;13.90;52.60;;;;;;4760902;30;20070;-94
2023/04/11 13:00:45;;;;;;;3.75;0.80;;;13.90;53.20;;;;;;4766903;30;20180;-92
2023/04/11 13:08:27;;;;;;;4.38;0.70;;;13.80;53.60;;;;;;4725469;30;20044;-93
2023/04/11 13:11:08;;;;;;;4.70;0.43;;;13.80;53.40;;;;;;4707919;30;20067;-91
2023/04/11 13:15:09;;;;;;;3.70;0.65;;;13.90;52.90;;;;;;4709770;30;20144;-92
2023/04/11 13:17:41;;;;;;;5.38;0.57;;;14.10;52.30;;;;;;4735352;30;20079;-94
2023/04/11 13:20:14;;;;;;;5.55;0.50;;;14.30;51.80;;;;;;4705814;30;20052;-92
2023/04/11 13:22:42;;;;;;;4.47;0.63;;;14.40;50.90;;;;;;4719190;30;20267;-92
2023/04/11 13:25:12;;;;;;;6.53;0.55;;;14.40;50.20;;;;;;4731926;30;20052;-93
2023/04/11 13:27:40;;;;;;;5.45;0.60;;;14.40;50.70;;;;;;4718749;30;20052;-92
2023/04/11 13:30:16;;;;;;;5.68;0.95;;;14.50;50.50;;;;;;4721468;30;20053;-94
2023/04/11 13:34:24;;;;;;;5.78;0.50;;;14.60;49.80;;;;;;4720435;30;20444;-95
2023/04/11 13:41:21;;;;;;;4.38;0.47;;;14.50;48.70;;;;;;4771709;30;20081;-91
2023/04/11 13:44:21;;;;;;;3.30;0.50;;;14.30;49.90;;;;;;4755301;30;20060;-92
2023/04/11 13:46:48;;;;;;;3.53;0.43;;;14.30;48.10;;;;;;4769996;30;20056;-90
2023/04/11 13:49:17;;;;;;;5.72;0.60;;;14.20;48.00;;;;;;4770677;30;20497;-93
2023/04/11 13:51:52;;;;;;;3.92;0.55;;;14.10;48.40;;;;;;4756002;30;20094;-92
2023/04/11 13:54:22;;;;;;;3.35;0.30;;;14.00;48.60;;;;;;4755861;30;20051;-94
2023/04/11 13:57:44;;;;;;;3.90;1.17;;;14.00;49.60;;;;;;4753727;30;20078;-95
2023/04/11 14:05:00;;;;;;;6.30;0.40;;;14.10;50.00;;;;;;4712430;30;20044;-88
2023/04/11 14:07:30;;;;;;;3.60;0.40;;;14.20;49.90;;;;;;4689598;30;20069;-88
2023/04/11 14:09:58;;;;;;;1.90;0.50;;;14.20;49.50;;;;;;4687310;30;20068;-91
2023/04/11 14:12:26;;;;;;;3.10;0.38;;;14.10;49.60;;;;;;4677272;30;20049;-89
2023/04/11 14:14:55;;;;;;;3.95;0.40;;;14.10;50.00;;;;;;4684339;30;20050;-89
2023/04/11 14:17:22;;;;;;;4.75;0.50;;;14.10;50.40;;;;;;4699009;30;20151;-90
2023/04/11 14:19:49;;;;;;;2.85;0.43;;;14.20;50.10;;;;;;4699239;30;20057;-89
2023/04/11 14:22:17;;;;;;;2.67;0.98;;;14.20;50.70;;;;;;4698667;30;20058;-91
2023/04/11 14:24:44;;;;;;;2.55;0.47;;;14.20;50.70;;;;;;4711820;30;20063;-90
2023/04/11 14:27:14;;;;;;;3.88;0.65;;;14.20;50.60;;;;;;4755593;30;20446;-89
2023/04/11 14:29:41;;;;;;;4.13;0.60;;;14.10;50.30;;;;;;4754839;30;20056;-88
2023/04/11 14:32:11;;;;;;;3.25;0.77;;;14.10;50.70;;;;;;4755310;30;20056;-91
2023/04/11 14:34:42;;;;;;;6.25;0.45;;;14.10;50.80;;;;;;4757672;30;20134;-89
2023/04/11 14:37:09;;;;;;;4.78;0.50;;;14.20;50.10;;;;;;4758846;30;20138;-90
2023/04/11 14:39:38;;;;;;;3.17;0.98;;;14.20;49.40;;;;;;4749365;30;20056;-90
2023/04/11 14:42:06;;;;;;;2.50;0.40;;;14.20;49.60;;;;;;4730281;30;20052;-90
2023/04/11 14:44:34;;;;;;;1.45;0.30;;;14.30;49.80;;;;;;4758690;30;20105;-90
2023/04/11 14:47:01;;;;;;;3.60;0.40;;;14.30;49.70;;;;;;4758352;30;20138;-90
2023/04/11 14:49:28;;;;;;;0.82;0.30;;;14.40;49.40;;;;;;4773662;30;20459;-90
2023/04/11 14:51:55;;;;;;;4.15;0.60;;;14.40;49.30;;;;;;4758852;30;20150;-91
2023/04/11 14:54:23;;;;;;;2.38;0.45;;;14.40;49.50;;;;;;4744594;30;20109;-90
2023/04/11 14:56:53;;;;;;;2.95;0.65;;;14.50;49.40;;;;;;4744454;30;20048;-91
2023/04/11 14:59:20;;;;;;;3.72;0.93;;;14.50;49.40;;;;;;4758376;30;20066;-91
2023/04/11 15:01:48;;;;;;;2.70;0.45;;;14.40;49.90;;;;;;4773629;30;20052;-91
2023/04/11 15:04:15;;;;;;;3.50;0.57;;;14.50;50.40;;;;;;4758232;30;20062;-91
2023/04/11 15:06:42;;;;;;;2.40;0.70;;;14.50;49.50;;;;;;4773090;30;20147;-90
2023/04/11 15:09:10;;;;;;;4.45;0.38;;;14.50;48.40;;;;;;4757676;30;20056;-90
2023/04/11 15:11:37;;;;;;;5.25;0.93;;;14.50;47.80;;;;;;4743575;30;20180;-89
2023/04/11 15:14:07;;;;;;;3.22;0.60;;;14.60;48.20;;;;;;4758290;30;20052;-94